Time;durP1;ratioP1;P1;durP2;ratioP2;P2;SDS_P1;SDS_P2;PMS_P1;PMS_P2;Temp;Humidity;BMP_temperature;BMP_pressure;BME280_temperature;BME280_humidity;BME280_pressure;Samples;Min_cycle;Max_cycle;Signal;HPM_P1;HPM_P2
2022/07/01 00:00:23;;;;;;;14.00;8.33;;;;;;;22.15;100.00;97775.83;1625003;86;28103;-89
2022/07/01 00:02:51;;;;;;;9.08;7.10;;;;;;;22.19;100.00;97779.73;1641816;86;28065;-84
2022/07/01 00:05:18;;;;;;;10.32;7.10;;;;;;;22.19;100.00;97778.41;1648737;86;28142;-85
2022/07/01 00:07:48;;;;;;;12.47;6.90;;;;;;;22.19;100.00;97779.73;1662848;85;28054;-84
2022/07/01 00:10:16;;;;;;;10.45;7.30;;;;;;;22.16;100.00;97775.61;1654705;84;28114;-85
2022/07/01 00:12:44;;;;;;;12.73;7.53;;;;;;;22.11;100.00;97774.05;1663204;85;28069;-85
2022/07/01 00:15:10;;;;;;;9.05;7.83;;;;;;;22.05;100.00;97776.98;1647753;86;28099;-85
2022/07/01 00:17:39;;;;;;;9.35;7.87;;;;;;;22.00;100.00;97766.09;1650503;86;28093;-85
2022/07/01 00:20:10;;;;;;;12.30;6.55;;;;;;;21.95;100.00;97763.19;1662041;85;28069;-85
2022/07/01 00:22:42;;;;;;;9.90;7.25;;;;;;;21.89;100.00;97753.27;1663263;84;28094;-85
2022/07/01 00:25:09;;;;;;;9.63;6.87;;;;;;;21.85;100.00;97749.36;1667290;84;28145;-86
2022/07/01 00:27:40;;;;;;;10.05;7.12;;;;;;;21.68;100.00;97748.01;1660955;85;28098;-86
2022/07/01 00:30:09;;;;;;;9.30;6.90;;;;;;;21.52;100.00;97740.30;1661486;84;28071;-84
2022/07/01 00:32:36;;;;;;;10.82;6.40;;;;;;;21.31;100.00;97748.32;1664247;84;35122;-89
2022/07/01 00:35:05;;;;;;;12.23;6.58;;;;;;;21.08;100.00;97754.63;1664517;85;28075;-89
2022/07/01 00:37:33;;;;;;;9.68;6.55;;;;;;;20.87;100.00;97750.63;1665918;85;28144;-89
2022/07/01 00:39:59;;;;;;;14.98;7.17;;;;;;;20.69;100.00;97747.55;1665448;84;28112;-88
2022/07/01 00:42:25;;;;;;;7.97;6.83;;;;;;;20.68;100.00;97749.89;1661725;84;28072;-85
2022/07/01 00:44:56;;;;;;;10.00;6.62;;;;;;;20.68;100.00;97740.08;1669956;84;43346;-85
2022/07/01 00:47:21;;;;;;;11.50;7.15;;;;;;;20.77;100.00;97742.96;1664871;85;28206;-86
2022/07/01 00:49:47;;;;;;;10.88;6.78;;;;;;;20.94;100.00;97742.22;1667134;84;28079;-86
2022/07/01 00:52:13;;;;;;;10.05;6.72;;;;;;;21.02;100.00;97740.75;1671490;85;43556;-86
2022/07/01 00:54:40;;;;;;;11.35;7.75;;;;;;;21.00;100.00;97732.13;1663436;85;28102;-86
2022/07/01 00:57:09;;;;;;;14.68;8.05;;;;;;;20.89;100.00;97737.98;1665125;84;28073;-88
2022/07/01 00:59:37;;;;;;;13.78;7.75;;;;;;;20.95;100.00;97742.52;1665797;84;28186;-87
2022/07/01 01:02:06;;;;;;;10.70;7.50;;;;;;;21.09;100.00;97742.16;1661662;85;28138;-87
2022/07/01 01:04:35;;;;;;;11.93;7.62;;;;;;;21.18;100.00;97744.52;1682709;83;28095;-88
2022/07/01 01:07:02;;;;;;;10.35;8.00;;;;;;;21.22;100.00;97740.45;1671796;84;28167;-87
2022/07/01 01:09:35;;;;;;;11.68;8.15;;;;;;;21.25;100.00;97740.09;1678841;84;28010;-88
2022/07/01 01:12:01;;;;;;;11.05;8.10;;;;;;;21.26;100.00;97744.91;1678610;84;28068;-87
2022/07/01 01:14:50;;;;;;;10.10;7.58;;;;;;;21.23;100.00;97742.11;1677649;83;28174;-90
2022/07/01 01:17:17;;;;;;;10.82;7.92;;;;;;;21.29;100.00;97748.00;1685387;83;28012;-90
2022/07/01 01:19:44;;;;;;;13.70;7.60;;;;;;;21.12;100.00;97747.08;1683958;83;28132;-90
2022/07/01 01:22:14;;;;;;;12.20;7.30;;;;;;;20.88;100.00;97747.79;1690835;84;28050;-90
2022/07/01 01:24:44;;;;;;;12.00;7.62;;;;;;;20.67;100.00;97753.59;1684470;83;28117;-84
2022/07/01 01:27:10;;;;;;;9.35;6.80;;;;;;;20.55;100.00;97751.91;1681006;83;28174;-84
2022/07/01 01:29:41;;;;;;;9.03;6.95;;;;;;;20.46;100.00;97751.17;1685219;84;28100;-84
2022/07/01 01:32:11;;;;;;;11.35;7.30;;;;;;;20.36;100.00;97747.16;1685429;83;28120;-84
2022/07/01 01:34:40;;;;;;;14.35;7.30;;;;;;;20.32;100.00;97741.91;1687215;84;28148;-87
2022/07/01 01:37:08;;;;;;;9.60;6.72;;;;;;;20.41;100.00;97745.59;1686532;84;28050;-87
2022/07/01 01:39:42;;;;;;;11.88;7.33;;;;;;;20.51;100.00;97741.30;1684694;84;28120;-87
2022/07/01 01:42:08;;;;;;;10.85;7.20;;;;;;;20.53;100.00;97750.44;1683179;84;28164;-87
2022/07/01 01:44:44;;;;;;;9.95;7.10;;;;;;;20.46;100.00;97748.52;1680177;83;28088;-87
2022/07/01 01:47:10;;;;;;;7.50;6.47;;;;;;;20.42;100.00;97746.42;1687541;83;28080;-88
2022/07/01 01:49:38;;;;;;;9.90;7.22;;;;;;;20.39;100.00;97751.63;1680750;84;28132;-87
2022/07/01 01:52:05;;;;;;;9.68;7.05;;;;;;;20.40;100.00;97755.11;1684034;83;28072;-85
2022/07/01 01:54:31;;;;;;;9.30;7.28;;;;;;;20.38;100.00;97748.64;1684898;84;28188;-85
2022/07/01 01:56:57;;;;;;;10.53;7.05;;;;;;;20.41;100.00;97750.08;1684734;84;28069;-86
2022/07/01 01:59:23;;;;;;;10.25;7.70;;;;;;;20.60;100.00;97740.20;1679329;83;28107;-85
2022/07/01 02:01:58;;;;;;;11.22;7.47;;;;;;;20.76;100.00;97744.47;1680063;84;28169;-86
2022/07/01 02:04:26;;;;;;;10.82;8.48;;;;;;;20.87;100.00;97748.80;1686540;83;28098;-86
2022/07/01 02:06:53;;;;;;;13.08;7.45;;;;;;;20.93;100.00;97749.88;1682289;83;28143;-85
2022/07/01 02:09:28;;;;;;;11.68;7.28;;;;;;;20.94;100.00;97750.20;1680523;83;28098;-85
2022/07/01 02:11:56;;;;;;;8.15;6.78;;;;;;;20.91;100.00;97749.73;1683768;83;28006;-85
2022/07/01 02:14:22;;;;;;;9.88;8.03;;;;;;;20.88;100.00;97752.28;1690476;83;28114;-89
2022/07/01 02:16:48;;;;;;;11.08;8.60;;;;;;;20.81;100.00;97750.88;1688712;83;28054;-87
2022/07/01 02:19:15;;;;;;;10.32;7.67;;;;;;;20.77;100.00;97758.09;1685426;83;28589;-87
2022/07/01 02:21:42;;;;;;;11.73;7.90;;;;;;;20.72;100.00;97752.02;1687652;83;28156;-86
2022/07/01 02:24:09;;;;;;;10.93;7.90;;;;;;;20.64;100.00;97761.92;1683475;83;28175;-87
2022/07/01 02:26:35;;;;;;;9.35;7.22;;;;;;;20.59;100.00;97768.30;1675679;83;28061;-87
2022/07/01 02:29:02;;;;;;;9.83;7.70;;;;;;;20.53;100.00;97777.02;1668735;83;28145;-87
2022/07/01 02:31:31;;;;;;;10.15;8.50;;;;;;;20.45;100.00;97776.63;1685598;83;28088;-86
2022/07/01 02:33:59;;;;;;;13.62;8.35;;;;;;;20.30;100.00;97776.59;1683605;84;27995;-88
2022/07/01 02:36:27;;;;;;;13.10;8.30;;;;;;;20.32;100.00;97779.94;1686332;83;28085;-88
2022/07/01 02:38:56;;;;;;;11.88;7.80;;;;;;;20.38;100.00;97781.86;1678471;84;28077;-87
2022/07/01 02:41:24;;;;;;;13.95;8.53;;;;;;;20.49;100.00;97782.39;1683578;83;28116;-89
2022/07/01 02:43:50;;;;;;;11.08;8.13;;;;;;;20.56;100.00;97781.98;1682610;84;28103;-89
2022/07/01 02:46:17;;;;;;;12.20;8.33;;;;;;;20.62;100.00;97776.72;1685843;84;28065;-89
2022/07/01 02:48:47;;;;;;;9.68;7.40;;;;;;;20.70;100.00;97781.12;1687974;83;28099;-89
2022/07/01 02:51:20;;;;;;;9.93;7.40;;;;;;;20.76;100.00;97779.05;1686822;84;28068;-89
2022/07/01 02:53:46;;;;;;;10.72;7.55;;;;;;;20.76;100.00;97776.38;1689736;83;28151;-89
2022/07/01 02:56:12;;;;;;;8.73;7.05;;;;;;;20.59;100.00;97778.44;1686238;84;28215;-88
2022/07/01 02:58:40;;;;;;;10.08;6.85;;;;;;;20.42;100.00;97779.64;1692558;84;28134;-86
2022/07/01 03:01:08;;;;;;;10.30;7.17;;;;;;;20.30;100.00;97773.94;1685868;83;28042;-87
2022/07/01 03:03:35;;;;;;;9.58;6.78;;;;;;;20.23;100.00;97772.22;1677943;83;28107;-85
2022/07/01 03:06:01;;;;;;;11.33;7.55;;;;;;;20.25;100.00;97777.66;1667222;84;28092;-85
2022/07/01 03:08:39;;;;;;;10.25;7.55;;;;;;;20.41;100.00;97781.48;1666734;84;28096;-87
2022/07/01 03:11:06;;;;;;;10.45;7.25;;;;;;;20.55;100.00;97781.66;1667946;84;28030;-87
2022/07/01 03:13:38;;;;;;;13.18;7.17;;;;;;;20.61;100.00;97784.41;1670561;84;28116;-85
2022/07/01 03:16:05;;;;;;;9.90;6.78;;;;;;;20.65;100.00;97786.17;1670438;84;28089;-85
2022/07/01 03:18:31;;;;;;;7.42;6.58;;;;;;;20.68;100.00;97791.11;1667237;84;28088;-85
2022/07/01 03:21:02;;;;;;;13.32;6.87;;;;;;;20.62;100.00;97794.53;1671023;84;28019;-85
2022/07/01 03:23:28;;;;;;;10.18;7.10;;;;;;;20.45;100.00;97804.05;1665468;85;28009;-85
2022/07/01 03:25:55;;;;;;;9.75;6.65;;;;;;;20.29;100.00;97808.16;1667369;85;28111;-87
2022/07/01 03:28:21;;;;;;;12.30;7.40;;;;;;;20.31;100.00;97804.86;1666464;84;28129;-85
2022/07/01 03:30:47;;;;;;;10.95;7.33;;;;;;;20.37;100.00;97816.09;1669068;85;28131;-85
2022/07/01 03:33:19;;;;;;;11.55;6.37;;;;;;;20.50;100.00;97810.63;1668767;85;28077;-84
2022/07/01 03:35:45;;;;;;;10.90;7.65;;;;;;;20.57;100.00;97812.85;1666382;84;28173;-84
2022/07/01 03:38:12;;;;;;;10.70;7.33;;;;;;;20.77;100.00;97813.44;1666565;84;28082;-89
2022/07/01 03:40:39;;;;;;;10.32;6.40;;;;;;;21.00;100.00;97810.61;1666347;84;28115;-86
2022/07/01 03:43:05;;;;;;;10.82;7.08;;;;;;;21.20;100.00;97812.20;1664914;85;28073;-86
2022/07/01 03:45:48;;;;;;;11.95;6.75;;;;;;;21.27;100.00;97819.22;1670895;83;28470;-86
2022/07/01 03:48:16;;;;;;;9.68;7.25;;;;;;;21.39;100.00;97822.71;1669295;85;28089;-84
2022/07/01 03:50:42;;;;;;;9.48;6.90;;;;;;;21.42;100.00;97820.52;1664384;84;28060;-84
2022/07/01 03:55:54;;;;;;;10.28;7.78;;;;;;;21.43;100.00;97824.83;1663970;85;28200;-86
2022/07/01 03:58:20;;;;;;;7.80;7.00;;;;;;;21.41;100.00;97821.52;1666800;85;28019;-85
2022/07/01 04:00:46;;;;;;;8.48;6.92;;;;;;;21.42;100.00;97827.67;1669102;85;28090;-85
2022/07/01 04:03:13;;;;;;;11.33;6.97;;;;;;;21.47;100.00;97823.93;1669152;84;28077;-86
2022/07/01 04:05:41;;;;;;;11.18;7.15;;;;;;;21.55;100.00;97831.77;1682329;83;28013;-86
2022/07/01 04:08:10;;;;;;;9.50;7.55;;;;;;;21.65;100.00;97838.45;1685949;84;28135;-89
2022/07/01 04:10:38;;;;;;;7.72;6.95;;;;;;;21.85;100.00;97833.78;1676036;84;28025;-90
2022/07/01 04:13:07;;;;;;;7.78;6.47;;;;;;;22.16;100.00;97838.25;1674442;83;28052;-89
2022/07/01 04:15:34;;;;;;;11.53;6.70;;;;;;;22.44;100.00;97838.22;1680174;83;28085;-85
2022/07/01 04:18:03;;;;;;;8.98;6.78;;;;;;;22.77;100.00;97839.75;1681921;83;28140;-86
2022/07/01 04:20:36;;;;;;;10.65;7.08;;;;;;;23.09;100.00;97833.72;1677515;84;28180;-85
2022/07/01 04:23:03;;;;;;;9.38;6.50;;;;;;;23.36;100.00;97834.09;1688059;83;28092;-85
2022/07/01 04:25:29;;;;;;;10.70;6.70;;;;;;;23.56;100.00;97826.67;1667286;83;28162;-90
2022/07/01 04:27:57;;;;;;;8.48;6.92;;;;;;;23.56;100.00;97828.83;1654915;84;28002;-86
2022/07/01 04:30:24;;;;;;;12.20;6.78;;;;;;;23.72;100.00;97824.42;1675804;83;28146;-86
2022/07/01 04:32:50;;;;;;;8.28;6.50;;;;;;;23.88;100.00;97825.86;1683235;83;28136;-86
2022/07/01 04:35:16;;;;;;;8.53;6.70;;;;;;;23.99;100.00;97823.08;1681692;83;28194;-87
2022/07/01 04:37:45;;;;;;;13.08;6.65;;;;;;;24.09;100.00;97824.30;1683009;83;28048;-87
2022/07/01 04:40:11;;;;;;;9.85;6.80;;;;;;;24.13;100.00;97828.70;1684482;84;28162;-86
2022/07/01 04:42:37;;;;;;;10.43;6.53;;;;;;;24.15;100.00;97825.32;1685951;84;28040;-86
2022/07/01 04:45:04;;;;;;;12.00;7.45;;;;;;;24.20;100.00;97820.71;1682885;83;28130;-85
2022/07/01 04:47:32;;;;;;;9.23;6.30;;;;;;;24.20;100.00;97815.36;1685194;83;28103;-85
2022/07/01 04:49:58;;;;;;;15.70;6.90;;;;;;;24.21;100.00;97823.19;1684778;83;28029;-86
2022/07/01 04:52:31;;;;;;;7.97;5.75;;;;;;;24.20;100.00;97824.72;1679693;83;28442;-86
2022/07/01 04:54:56;;;;;;;7.85;5.42;;;;;;;24.21;100.00;97821.84;1685155;84;28115;-89
2022/07/01 04:57:24;;;;;;;5.28;4.78;;;;;;;24.19;100.00;97821.22;1685418;83;28077;-89
2022/07/01 04:59:50;;;;;;;5.55;4.92;;;;;;;24.13;100.00;97828.70;1686008;83;28162;-89
2022/07/01 05:02:23;;;;;;;6.60;4.78;;;;;;;24.16;100.00;97829.64;1682393;84;28118;-90
2022/07/01 05:04:58;;;;;;;6.90;5.03;;;;;;;24.20;100.00;97824.21;1687363;83;28143;-86
2022/07/01 05:07:27;;;;;;;5.87;4.05;;;;;;;24.26;100.00;97827.91;1678054;84;28080;-87
2022/07/01 05:09:56;;;;;;;6.83;4.40;;;;;;;24.23;100.00;97826.45;1689313;84;28110;-85
2022/07/01 05:12:22;;;;;;;4.75;4.25;;;;;;;24.28;100.00;97823.97;1688113;83;28148;-89
2022/07/01 05:14:50;;;;;;;5.35;4.22;;;;;;;24.28;100.00;97822.64;1682482;84;28121;-85
2022/07/01 05:17:16;;;;;;;8.40;4.05;;;;;;;24.32;100.00;97822.55;1686996;84;28202;-86
2022/07/01 05:22:30;;;;;;;5.30;4.20;;;;;;;24.38;100.00;97821.72;1681928;84;28062;-86
2022/07/01 05:24:58;;;;;;;6.15;4.03;;;;;;;24.41;100.00;97821.28;1676577;84;28171;-85
2022/07/01 05:27:24;;;;;;;4.72;3.75;;;;;;;24.43;100.00;97817.07;1686866;84;28112;-89
2022/07/01 05:29:55;;;;;;;6.53;4.30;;;;;;;24.45;100.00;97813.14;1682107;84;28096;-86
2022/07/01 05:32:21;;;;;;;4.20;3.42;;;;;;;24.47;100.00;97808.41;1696307;83;28088;-86
2022/07/01 05:48:15;;;;;;;6.40;3.85;;;;;;;25.40;100.00;97817.68;1850043;75;85633;-85
2022/07/01 05:50:41;;;;;;;4.00;3.67;;;;;;;25.51;100.00;97821.52;1850310;77;28097;-89
2022/07/01 05:53:16;;;;;;;4.22;3.83;;;;;;;25.61;100.00;97820.55;1843696;77;28057;-84
2022/07/01 05:55:43;;;;;;;5.40;3.90;;;;;;;25.67;100.00;97825.56;1849118;76;28164;-84
2022/07/01 05:58:20;;;;;;;6.22;4.12;;;;;;;25.72;100.00;97821.70;1845239;77;28072;-85
2022/07/01 06:00:43;;;;;;;5.12;3.92;;;;;;;25.76;100.00;97825.59;1847024;77;28093;-85
2022/07/01 06:03:11;;;;;;;6.35;3.87;;;;;;;25.77;100.00;97822.70;1850478;77;28127;-85
2022/07/01 06:05:38;;;;;;;6.10;3.58;;;;;;;25.79;100.00;97821.14;1846885;77;28097;-85
2022/07/01 06:08:09;;;;;;;4.03;3.50;;;;;;;25.82;100.00;97811.31;1844618;77;28125;-85
2022/07/01 06:10:35;;;;;;;6.62;3.80;;;;;;;25.83;100.00;97810.28;1850342;77;28124;-84
2022/07/01 06:13:06;;;;;;;5.60;3.58;;;;;;;25.86;100.00;97806.35;1849931;76;28058;-85
2022/07/01 06:15:33;;;;;;;6.15;3.90;;;;;;;25.90;100.00;97811.05;1841341;77;28006;-85
2022/07/01 06:17:59;;;;;;;4.83;3.83;;;;;;;25.97;100.00;97819.02;1849731;77;28151;-85
2022/07/01 06:20:25;;;;;;;6.53;3.42;;;;;;;26.05;100.00;97822.25;1839422;76;28115;-89
2022/07/01 06:22:51;;;;;;;3.90;3.58;;;;;;;26.08;100.00;97829.84;1848151;77;28057;-85
2022/07/01 06:25:18;;;;;;;5.92;4.28;;;;;;;26.11;100.00;97829.42;1846958;77;28120;-85
2022/07/01 06:27:45;;;;;;;4.20;3.80;;;;;;;26.16;100.00;97829.58;1845528;76;28126;-85
2022/07/01 06:30:12;;;;;;;4.85;3.50;;;;;;;26.20;100.00;97825.41;1848957;77;28198;-84
2022/07/01 06:32:39;;;;;;;4.35;3.77;;;;;;;26.28;100.00;97823.00;1842455;76;28053;-84
2022/07/01 06:35:05;;;;;;;4.28;3.60;;;;;;;26.36;100.00;97826.72;1841132;76;28121;-89
2022/07/01 06:37:33;;;;;;;5.47;3.67;;;;;;;26.43;100.00;97826.14;1845911;77;28100;-85
2022/07/01 06:40:00;;;;;;;5.90;4.12;;;;;;;26.51;100.00;97829.86;1844914;77;27991;-85
2022/07/01 06:42:30;;;;;;;5.17;4.03;;;;;;;26.59;100.00;97829.58;1846045;76;28071;-85
2022/07/01 06:45:01;;;;;;;4.80;4.22;;;;;;;26.69;100.00;97838.44;1845850;76;28157;-84
2022/07/01 06:47:27;;;;;;;4.25;3.85;;;;;;;26.80;100.00;97844.92;1822607;77;28106;-85
2022/07/01 06:49:53;;;;;;;6.17;4.00;;;;;;;26.90;100.00;97851.44;1850668;77;28179;-85
2022/07/01 06:52:25;;;;;;;6.47;3.90;;;;;;;26.93;100.00;97848.32;1849822;77;28059;-84
2022/07/01 06:54:51;;;;;;;6.50;3.95;;;;;;;26.99;100.00;97850.11;1846591;76;28019;-85
2022/07/01 06:57:18;;;;;;;5.25;4.20;;;;;;;27.00;100.00;97847.70;1849394;76;28035;-85
2022/07/01 06:59:45;;;;;;;5.35;4.30;;;;;;;27.07;100.00;97848.96;1849471;77;28131;-84
2022/07/01 07:02:11;;;;;;;5.35;3.95;;;;;;;27.14;100.00;97848.36;1847354;76;28093;-85
2022/07/01 07:04:43;;;;;;;9.25;4.87;;;;;;;27.20;100.00;97847.45;1848465;76;28068;-85
2022/07/01 07:07:10;;;;;;;6.10;4.20;;;;;;;27.25;100.00;97848.94;1846476;76;28077;-85
2022/07/01 07:09:40;;;;;;;5.20;4.50;;;;;;;27.32;100.00;97854.23;1849898;76;28065;-85
2022/07/01 07:12:10;;;;;;;6.58;4.03;;;;;;;27.37;100.00;97855.19;1849307;76;28081;-84
2022/07/01 07:14:36;;;;;;;5.72;4.37;;;;;;;27.42;100.00;97855.32;1843077;76;28187;-85
2022/07/01 07:17:02;;;;;;;5.60;4.30;;;;;;;27.49;100.00;97848.52;1844603;76;28122;-85
2022/07/01 07:19:28;;;;;;;6.53;4.40;;;;;;;27.53;100.00;97848.38;1843852;76;28083;-85
2022/07/01 07:21:56;;;;;;;6.92;4.87;;;;;;;27.59;100.00;97846.64;1846557;76;28123;-85
2022/07/01 07:24:24;;;;;;;8.28;4.67;;;;;;;27.70;100.00;97852.05;1845272;76;28017;-85
2022/07/01 07:26:56;;;;;;;8.03;4.90;;;;;;;27.76;100.00;97849.78;1843445;76;28075;-90
2022/07/01 07:29:22;;;;;;;7.60;4.50;;;;;;;27.85;100.00;97847.56;1846622;77;28126;-85
2022/07/01 07:31:48;;;;;;;8.20;4.75;;;;;;;27.96;100.00;97852.15;1844259;76;28073;-85
2022/07/01 07:34:14;;;;;;;8.50;5.37;;;;;;;28.01;100.00;97843.37;1849435;76;28045;-85
2022/07/01 07:36:41;;;;;;;5.60;4.97;;;;;;;28.12;100.00;97853.33;1847651;76;28572;-85
2022/07/01 07:39:07;;;;;;;8.50;5.42;;;;;;;28.21;100.00;97850.61;1846253;76;28060;-85
2022/07/01 07:41:34;;;;;;;6.08;4.92;;;;;;;28.30;100.00;97845.19;1846895;77;28087;-85
2022/07/01 07:44:03;;;;;;;8.48;4.90;;;;;;;28.39;100.00;97853.19;1822146;76;28061;-85
2022/07/01 07:46:38;;;;;;;7.67;5.00;;;;;;;28.49;100.00;97856.11;1847994;77;28089;-85
2022/07/01 07:49:08;;;;;;;7.80;4.60;;;;;;;28.58;100.00;97851.20;1768705;78;28088;-86
2022/07/01 07:51:34;;;;;;;7.95;4.47;;;;;;;28.60;100.00;97848.55;1764254;81;28095;-89
2022/07/01 07:54:02;;;;;;;7.22;3.80;;;;;;;28.65;100.00;97851.34;1762621;80;28038;-89
2022/07/01 07:56:29;;;;;;;9.33;4.50;;;;;;;28.73;100.00;97855.59;1761518;80;28143;-89
2022/07/01 07:58:55;;;;;;;5.08;3.58;;;;;;;28.79;100.00;97847.91;1762560;81;28105;-85
2022/07/01 08:01:21;;;;;;;6.42;4.00;;;;;;;28.86;100.00;97849.14;1763881;81;28083;-85
2022/07/01 08:03:48;;;;;;;6.53;3.85;;;;;;;28.92;100.00;97845.46;1761110;80;28047;-85
2022/07/01 08:06:16;;;;;;;5.62;3.98;;;;;;;29.05;100.00;97850.59;1763065;81;28028;-85
2022/07/01 08:08:45;;;;;;;8.13;4.83;;;;;;;29.16;100.00;97852.43;1761530;81;28119;-85
2022/07/01 08:11:11;;;;;;;6.95;3.65;;;;;;;29.21;100.00;97855.22;1761044;81;28099;-89
2022/07/01 08:13:38;;;;;;;5.60;3.85;;;;;;;29.23;99.59;97860.38;1760339;80;28140;-85
2022/07/01 08:16:04;;;;;;;8.68;3.98;;;;;;;29.34;98.75;97865.77;1761614;80;28026;-85
2022/07/01 08:18:33;;;;;;;6.83;3.98;;;;;;;29.41;97.65;97857.50;1757103;80;28068;-90
2022/07/01 08:20:59;;;;;;;7.78;4.37;;;;;;;29.46;96.79;97861.12;1761261;81;28102;-85
2022/07/01 08:23:27;;;;;;;7.35;4.30;;;;;;;29.52;96.06;97861.50;1755498;81;28084;-85
2022/07/01 08:25:53;;;;;;;5.33;3.83;;;;;;;29.60;95.58;97862.17;1761561;81;28119;-85
2022/07/01 08:28:25;;;;;;;8.50;4.50;;;;;;;29.64;95.16;97864.67;1761644;78;28124;-85
2022/07/01 08:30:52;;;;;;;7.85;4.30;;;;;;;29.66;94.90;97857.17;1762667;81;28096;-89
2022/07/01 08:33:18;;;;;;;13.15;4.80;;;;;;;29.73;94.62;97857.84;1760389;80;28053;-90
2022/07/01 08:35:45;;;;;;;8.90;4.53;;;;;;;29.84;94.03;97855.60;1761248;81;28076;-89
2022/07/01 08:38:11;;;;;;;6.92;4.28;;;;;;;29.93;93.32;97859.03;1764191;80;28009;-90
2022/07/01 08:40:43;;;;;;;6.60;4.53;;;;;;;30.01;92.67;97861.02;1762720;80;28057;-85
2022/07/01 08:43:09;;;;;;;5.40;3.90;;;;;;;30.04;92.17;97857.31;1763275;81;28065;-84
2022/07/01 08:45:37;;;;;;;8.15;4.00;;;;;;;30.06;91.47;97860.56;1762246;80;28126;-85
2022/07/01 08:48:05;;;;;;;6.92;4.00;;;;;;;30.15;90.25;97852.36;1787934;78;28001;-86
2022/07/01 08:50:37;;;;;;;8.80;3.58;;;;;;;30.19;89.38;97858.08;1830341;76;28086;-85
2022/07/01 08:53:13;;;;;;;8.20;4.20;;;;;;;30.24;88.70;97855.45;1825180;76;28136;-85
2022/07/01 08:58:29;;;;;;;5.47;3.60;;;;;;;30.22;87.79;97855.69;1824825;78;28100;-85
2022/07/01 09:01:22;;;;;;;6.97;3.90;;;;;;;30.24;87.45;97850.88;1827839;78;28107;-90
2022/07/01 09:03:50;;;;;;;7.10;3.60;;;;;;;30.37;87.12;97847.02;1825888;76;28060;-90
2022/07/01 09:06:21;;;;;;;7.03;4.20;;;;;;;30.47;86.52;97847.19;1827593;76;28137;-85
2022/07/01 09:08:48;;;;;;;4.78;3.40;;;;;;;30.54;85.78;97844.32;1823508;77;28080;-85
2022/07/01 09:11:17;;;;;;;5.70;3.45;;;;;;;30.49;85.29;97848.30;1828491;76;28094;-89
2022/07/01 09:14:06;;;;;;;6.50;3.87;;;;;;;30.50;84.54;97845.33;1825415;76;28083;-90
2022/07/01 09:16:46;;;;;;;4.47;3.10;;;;;;;30.54;84.18;97847.02;1828163;78;28080;-85
2022/07/01 09:19:14;;;;;;;5.35;3.25;;;;;;;30.56;83.79;97845.69;1826950;78;28101;-85
2022/07/01 09:21:44;;;;;;;3.87;2.70;;;;;;;30.66;83.38;97843.66;1824232;77;28104;-84
2022/07/01 09:24:36;;;;;;;4.62;2.60;;;;;;;30.77;82.02;97851.39;1829259;78;28106;-90
2022/07/01 09:27:16;;;;;;;8.33;3.30;;;;;;;30.85;81.00;97847.70;1830391;78;28062;-89
2022/07/01 09:29:45;;;;;;;6.93;2.83;;;;;;;30.94;80.05;97850.23;1826803;78;28097;-85
2022/07/01 09:32:18;;;;;;;5.75;3.00;;;;;;;31.03;79.38;97844.73;1826709;78;28057;-86
2022/07/01 09:34:54;;;;;;;4.83;2.80;;;;;;;31.11;77.98;97846.97;1828795;77;28163;-90
2022/07/01 09:37:24;;;;;;;8.30;3.17;;;;;;;31.14;77.30;97843.78;1830745;77;27979;-85
2022/07/01 09:39:55;;;;;;;4.12;2.80;;;;;;;31.22;76.20;97848.43;1825884;78;28103;-85
2022/07/01 09:42:23;;;;;;;5.70;2.33;;;;;;;31.30;75.86;97848.00;1828930;78;28074;-86
2022/07/01 09:44:58;;;;;;;4.15;2.77;;;;;;;31.38;74.81;97848.88;1827036;77;28088;-85
2022/07/01 09:47:26;;;;;;;5.33;3.10;;;;;;;31.40;73.59;97852.98;1827443;76;28145;-86
2022/07/01 09:49:54;;;;;;;8.83;3.30;;;;;;;31.45;73.05;97856.27;1830034;77;27986;-85
2022/07/01 09:52:22;;;;;;;4.95;2.83;;;;;;;31.53;72.70;97857.17;1831065;76;28264;-85
2022/07/01 09:54:49;;;;;;;6.45;2.75;;;;;;;31.63;72.27;97860.54;1834722;76;28074;-89
2022/07/01 09:57:17;;;;;;;8.08;3.40;;;;;;;31.68;72.19;97855.99;1831581;77;28145;-85
2022/07/01 09:59:44;;;;;;;6.15;3.20;;;;;;;31.76;72.12;97854.69;1826492;76;28127;-86
2022/07/01 10:02:11;;;;;;;4.75;3.12;;;;;;;31.81;71.44;97847.97;1834753;77;28179;-89
2022/07/01 10:04:41;;;;;;;6.47;3.00;;;;;;;31.84;71.03;97850.18;1833103;76;28082;-89
2022/07/01 10:07:20;;;;;;;3.92;3.22;;;;;;;31.90;70.92;97851.33;1835633;77;28078;-86
2022/07/01 10:10:06;;;;;;;5.12;3.22;;;;;;;31.99;71.20;97849.77;1828067;77;28175;-89
2022/07/01 10:12:42;;;;;;;6.90;3.42;;;;;;;32.06;70.74;97850.09;1831030;77;28155;-89
2022/07/01 10:15:12;;;;;;;5.10;3.20;;;;;;;32.02;69.72;97851.69;1824759;76;28203;-90
2022/07/01 10:17:44;;;;;;;5.65;2.92;;;;;;;32.02;69.24;97848.98;1834176;77;28189;-85
2022/07/01 10:20:13;;;;;;;4.55;2.95;;;;;;;32.05;69.25;97849.27;1830854;76;28167;-85
2022/07/01 10:22:41;;;;;;;4.90;3.08;;;;;;;32.03;69.04;97845.17;1823033;77;28083;-85
2022/07/01 10:25:34;;;;;;;3.75;3.10;;;;;;;31.97;68.34;97840.26;1830688;77;28090;-85
2022/07/01 10:28:13;;;;;;;4.12;3.02;;;;;;;31.98;67.97;97837.30;1822372;77;28133;-86
2022/07/01 10:30:55;;;;;;;7.50;3.40;;;;;;;32.06;67.43;97830.60;1743916;80;28493;-85
2022/07/01 10:33:37;;;;;;;3.75;2.90;;;;;;;32.18;66.79;97835.33;1832455;76;27999;-86
2022/07/01 10:36:11;;;;;;;9.13;3.50;;;;;;;32.29;66.07;97835.68;1829368;77;28062;-88
2022/07/01 10:39:16;;;;;;;7.10;2.85;;;;;;;32.42;65.54;97833.56;1826473;77;28145;-87
2022/07/01 10:41:58;;;;;;;5.55;3.45;;;;;;;32.46;64.53;97828.71;1830051;77;28033;-87
2022/07/01 10:44:26;;;;;;;6.10;3.55;;;;;;;32.49;64.33;97829.56;1822701;77;28046;-86
2022/07/01 10:46:57;;;;;;;3.83;2.87;;;;;;;32.54;63.85;97832.30;1831527;76;28148;-86
2022/07/01 10:49:39;;;;;;;4.00;3.02;;;;;;;32.62;63.60;97833.14;1820850;76;28169;-86
2022/07/01 10:52:11;;;;;;;4.47;2.92;;;;;;;32.67;62.98;97839.18;1827465;78;28116;-91
2022/07/01 10:54:45;;;;;;;8.35;3.08;;;;;;;32.68;62.18;97832.12;1824259;78;28123;-90
2022/07/01 10:57:25;;;;;;;5.12;3.12;;;;;;;32.70;61.20;97831.33;1821130;76;28088;-86
2022/07/01 11:00:02;;;;;;;4.95;3.37;;;;;;;32.73;60.62;97830.00;1825212;76;28171;-86
2022/07/01 11:02:37;;;;;;;3.58;2.98;;;;;;;32.74;60.29;97823.47;1827242;76;28165;-86
2022/07/01 11:05:13;;;;;;;6.70;3.37;;;;;;;32.62;58.76;97820.94;1827926;77;28070;-86
2022/07/01 11:07:48;;;;;;;3.27;3.00;;;;;;;32.66;58.87;97820.75;1822468;78;28114;-86
2022/07/01 11:10:19;;;;;;;3.87;3.17;;;;;;;32.67;58.47;97812.90;1824849;76;28057;-86
2022/07/01 11:12:49;;;;;;;8.28;3.67;;;;;;;32.76;58.28;97815.38;1821331;78;28101;-86
2022/07/01 11:15:17;;;;;;;7.12;3.52;;;;;;;32.82;58.08;97813.50;1822052;76;28121;-90
2022/07/01 11:17:46;;;;;;;5.70;3.42;;;;;;;32.95;58.71;97811.63;1820346;78;27997;-88
2022/07/01 11:20:20;;;;;;;3.95;3.20;;;;;;;33.05;58.68;97810.88;1821190;76;28066;-86
2022/07/01 11:22:46;;;;;;;5.00;3.60;;;;;;;33.09;58.05;97807.36;1823787;78;28155;-90
2022/07/01 11:25:13;;;;;;;4.33;3.00;;;;;;;33.16;57.93;97798.97;1825632;76;28119;-90
2022/07/01 11:27:40;;;;;;;4.70;3.35;;;;;;;33.20;57.33;97798.73;1816999;76;28070;-87
2022/07/01 11:30:14;;;;;;;4.47;3.30;;;;;;;33.25;56.92;97797.39;1818029;78;28102;-89
2022/07/01 11:32:43;;;;;;;3.60;3.30;;;;;;;33.28;56.64;97792.77;1825652;78;28047;-87
2022/07/01 11:41:04;;;;;;;5.73;3.47;;;;;;;33.48;56.22;97780.61;1828066;76;28141;-90
2022/07/01 11:43:36;;;;;;;6.22;4.03;;;;;;;33.52;56.12;97779.52;1821951;77;28125;-86
2022/07/01 11:46:04;;;;;;;7.33;3.35;;;;;;;33.52;55.87;97782.23;1821401;77;28066;-86
2022/07/01 11:48:37;;;;;;;6.75;3.35;;;;;;;33.60;55.76;97776.28;1828571;77;28172;-89
2022/07/01 11:51:12;;;;;;;6.22;3.60;;;;;;;33.61;55.39;97777.88;1826457;76;28132;-86
2022/07/01 11:53:43;;;;;;;5.35;4.10;;;;;;;33.67;55.12;97770.56;1822477;77;28095;-86
2022/07/01 11:56:10;;;;;;;5.08;3.72;;;;;;;33.78;54.90;97779.00;1823563;76;28080;-86
2022/07/01 11:58:55;;;;;;;4.85;3.72;;;;;;;33.86;54.67;97774.41;1828350;76;28074;-90
2022/07/01 12:01:33;;;;;;;4.37;3.55;;;;;;;33.92;54.37;97780.92;1828283;76;28121;-86
2022/07/01 12:04:02;;;;;;;5.55;3.55;;;;;;;33.81;53.53;97771.16;1832183;77;28060;-86